createdAt,value
2017-08-28T00:00:05.337Z,16.40
2017-08-28T00:02:31.382Z,16.40
2017-08-28T00:04:57.380Z,16.30
2017-08-28T00:07:23.409Z,16.30
2017-08-28T00:09:49.656Z,16.30
2017-08-28T00:12:15.683Z,16.30
2017-08-28T00:14:41.722Z,16.30
2017-08-28T00:17:07.760Z,16.30
2017-08-28T00:19:33.781Z,16.30
2017-08-28T00:21:59.789Z,16.20
2017-08-28T00:24:25.847Z,16.20
2017-08-28T00:26:51.899Z,16.20
2017-08-28T00:29:17.943Z,16.20
2017-08-28T00:31:44.360Z,16.20
2017-08-28T00:34:10.379Z,16.10
2017-08-28T00:36:36.405Z,16.10
2017-08-28T00:39:02.456Z,16.10
2017-08-28T00:41:28.471Z,16.10
2017-08-28T00:43:54.525Z,16.10
2017-08-28T00:46:20.583Z,16.20
2017-08-28T00:48:46.624Z,16.10
2017-08-28T00:51:12.758Z,16.10
2017-08-28T00:53:38.773Z,16.10
2017-08-28T00:56:04.800Z,16.00
2017-08-28T00:58:30.849Z,16.00
2017-08-28T01:00:56.889Z,16.00
2017-08-28T01:03:22.921Z,16.00
2017-08-28T01:05:48.961Z,16.10
2017-08-28T01:08:14.989Z,16.00
2017-08-28T01:10:41.009Z,16.00
2017-08-28T01:13:07.337Z,15.90
2017-08-28T01:15:33.381Z,16.00
2017-08-28T01:17:59.469Z,15.90
2017-08-28T01:20:25.519Z,15.90
2017-08-28T01:22:51.520Z,15.90
2017-08-28T01:25:17.525Z,15.90
2017-08-28T01:27:43.577Z,15.80
2017-08-28T01:30:09.624Z,15.80
2017-08-28T01:32:35.979Z,15.80
2017-08-28T01:35:02.010Z,15.80
2017-08-28T01:37:28.291Z,15.70
2017-08-28T01:39:54.317Z,15.70
2017-08-28T01:42:20.347Z,15.70
2017-08-28T01:44:46.404Z,15.70
2017-08-28T01:47:12.457Z,15.70
2017-08-28T01:49:38.492Z,15.60
2017-08-28T01:52:04.545Z,15.60
2017-08-28T01:54:30.601Z,15.60
2017-08-28T01:56:56.743Z,15.60
2017-08-28T01:59:22.806Z,15.50
2017-08-28T02:01:48.828Z,15.50
2017-08-28T02:04:14.908Z,15.50
2017-08-28T02:06:41.140Z,15.50
2017-08-28T02:09:07.161Z,15.50
2017-08-28T02:11:33.165Z,15.40
2017-08-28T02:13:59.243Z,15.50
2017-08-28T02:16:25.298Z,15.50
2017-08-28T02:18:51.334Z,15.50
2017-08-28T02:21:17.562Z,15.40
2017-08-28T02:23:43.590Z,15.40
2017-08-28T02:26:09.588Z,15.30
2017-08-28T02:28:35.639Z,15.30
2017-08-28T02:31:01.700Z,15.40
2017-08-28T02:33:27.704Z,15.30
2017-08-28T02:35:53.796Z,15.30
2017-08-28T02:38:19.895Z,15.30
2017-08-28T02:40:45.983Z,15.30
2017-08-28T02:43:12.046Z,15.30
2017-08-28T02:45:38.070Z,15.20
2017-08-28T02:48:04.413Z,15.20
2017-08-28T02:50:30.478Z,15.20
2017-08-28T02:52:56.497Z,15.20
2017-08-28T02:55:22.578Z,15.20
2017-08-28T02:57:48.597Z,15.20
2017-08-28T03:00:14.666Z,15.20
2017-08-28T03:02:40.693Z,15.20
2017-08-28T03:05:06.949Z,15.10
2017-08-28T03:07:32.973Z,15.10
2017-08-28T03:09:58.992Z,15.10
2017-08-28T03:12:25.344Z,15.10
2017-08-28T03:14:51.365Z,15.10
2017-08-28T03:17:17.367Z,15.10
2017-08-28T03:19:43.712Z,15.00
2017-08-28T03:22:09.731Z,15.00
2017-08-28T03:24:35.768Z,14.90
2017-08-28T03:27:01.812Z,14.90
2017-08-28T03:29:27.838Z,14.90
2017-08-28T03:31:53.875Z,14.90
2017-08-28T03:34:19.885Z,14.90
2017-08-28T03:36:45.937Z,14.90
2017-08-28T03:39:12.004Z,14.90
2017-08-28T03:41:38.032Z,14.90
2017-08-28T03:44:04.062Z,14.80
2017-08-28T03:46:30.143Z,14.80
2017-08-28T03:48:56.191Z,14.80
2017-08-28T03:51:22.256Z,14.90
2017-08-28T03:53:48.634Z,14.90
2017-08-28T03:56:14.702Z,14.90
2017-08-28T03:58:40.736Z,14.90
2017-08-28T04:01:06.784Z,14.90
2017-08-28T04:03:32.881Z,14.90
2017-08-28T04:05:58.996Z,14.80
2017-08-28T04:08:25.070Z,14.80
2017-08-28T04:10:51.123Z,14.80
2017-08-28T04:13:17.144Z,14.80
2017-08-28T04:15:43.180Z,14.80
2017-08-28T04:18:09.206Z,14.80
2017-08-28T04:20:35.243Z,14.80
2017-08-28T04:23:01.285Z,14.80
2017-08-28T04:25:27.302Z,14.70
2017-08-28T04:27:53.315Z,14.70
2017-08-28T04:30:19.346Z,14.70
2017-08-28T04:32:45.368Z,14.60
2017-08-28T04:35:11.424Z,14.60
2017-08-28T04:37:37.472Z,14.80
2017-08-28T04:40:03.732Z,14.90
2017-08-28T04:42:29.807Z,14.80
2017-08-28T04:44:56.318Z,14.80
2017-08-28T04:47:22.351Z,14.90
2017-08-28T04:49:49.556Z,14.90
2017-08-28T04:52:15.579Z,14.90
2017-08-28T04:54:41.601Z,14.90
2017-08-28T04:57:07.860Z,14.90
2017-08-28T04:59:33.946Z,14.90
2017-08-28T05:01:59.980Z,15.00
2017-08-28T05:04:26.329Z,15.10
2017-08-28T05:06:52.364Z,15.10
2017-08-28T05:09:18.397Z,15.10
2017-08-28T05:11:44.456Z,15.00
2017-08-28T05:14:10.491Z,15.00
2017-08-28T05:16:36.525Z,15.00
2017-08-28T05:19:02.586Z,15.10
2017-08-28T05:21:28.638Z,15.20
2017-08-28T05:23:54.693Z,15.30
2017-08-28T05:26:20.734Z,15.40
2017-08-28T05:28:46.754Z,15.50
2017-08-28T05:31:12.776Z,15.40
2017-08-28T05:33:38.798Z,15.50
2017-08-28T05:36:04.830Z,15.60
2017-08-28T05:38:30.851Z,15.80
2017-08-28T05:40:56.933Z,15.90
2017-08-28T05:43:22.960Z,16.00
2017-08-28T05:45:48.982Z,16.00
2017-08-28T05:48:15.046Z,16.00
2017-08-28T05:50:41.072Z,16.00
2017-08-28T05:53:07.103Z,16.10
2017-08-28T05:55:33.157Z,16.10
2017-08-28T05:57:59.182Z,16.20
2017-08-28T06:00:25.392Z,16.30
2017-08-28T06:02:51.401Z,16.40
2017-08-28T06:05:17.424Z,16.30
2017-08-28T06:07:43.614Z,16.40
2017-08-28T06:10:09.632Z,16.50
2017-08-28T06:12:35.649Z,16.50
2017-08-28T06:15:01.877Z,16.60
2017-08-28T06:17:27.913Z,16.60
2017-08-28T06:19:53.936Z,16.60
2017-08-28T06:22:19.988Z,16.70
2017-08-28T06:24:46.014Z,16.60
2017-08-28T06:27:12.037Z,16.60
2017-08-28T06:29:38.128Z,16.80
2017-08-28T06:32:04.156Z,16.80
2017-08-28T06:34:30.168Z,16.80
2017-08-28T06:36:56.185Z,16.90
2017-08-28T06:39:22.231Z,16.90
2017-08-28T06:41:48.244Z,17.00
2017-08-28T06:44:15.086Z,17.00
2017-08-28T06:46:41.104Z,17.00
2017-08-28T06:49:07.106Z,17.10
2017-08-28T06:51:33.155Z,17.10
2017-08-28T06:53:59.160Z,17.10
2017-08-28T06:56:25.167Z,17.00
2017-08-28T06:58:51.246Z,17.00
2017-08-28T07:01:17.321Z,17.00
2017-08-28T07:03:43.356Z,17.00
2017-08-28T07:06:09.384Z,17.00
2017-08-28T07:08:35.402Z,17.10
2017-08-28T07:11:08.621Z,17.20
2017-08-28T07:13:34.622Z,17.20
2017-08-28T07:16:00.639Z,17.10
2017-08-28T07:18:26.967Z,17.20
2017-08-28T07:20:52.992Z,17.30
2017-08-28T07:23:19.023Z,17.30
2017-08-28T07:25:45.068Z,17.40
2017-08-28T07:28:11.071Z,17.40
2017-08-28T07:30:37.100Z,17.30
2017-08-28T07:33:03.190Z,17.40
2017-08-28T07:35:29.208Z,17.40
2017-08-28T07:37:55.221Z,17.60
2017-08-28T07:40:21.263Z,17.50
2017-08-28T07:42:47.301Z,17.50
2017-08-28T07:45:13.320Z,17.60
2017-08-28T07:47:39.633Z,17.60
2017-08-28T07:50:05.640Z,17.70
2017-08-28T07:52:31.646Z,17.60
2017-08-28T07:54:57.676Z,17.70
2017-08-28T07:57:23.705Z,17.80
2017-08-28T07:59:49.773Z,17.90
2017-08-28T08:02:15.793Z,18.00
2017-08-28T08:04:41.841Z,18.10
2017-08-28T08:07:07.876Z,18.20
2017-08-28T08:09:33.910Z,18.20
2017-08-28T08:11:59.953Z,18.20
2017-08-28T08:14:26.235Z,18.30
2017-08-28T08:16:52.260Z,18.40
2017-08-28T08:19:18.276Z,18.50
2017-08-28T08:21:44.349Z,18.50
2017-08-28T08:24:10.357Z,18.50
2017-08-28T08:26:36.376Z,18.50
2017-08-28T08:29:02.441Z,18.60
2017-08-28T08:31:28.512Z,18.70
2017-08-28T08:34:00.770Z,18.60
2017-08-28T08:36:27.015Z,18.60
2017-08-28T08:38:53.012Z,18.60
2017-08-28T08:41:19.055Z,18.70
2017-08-28T08:43:45.372Z,18.70
2017-08-28T08:46:11.433Z,18.70
2017-08-28T08:48:37.433Z,18.80
2017-08-28T08:51:03.455Z,18.80
2017-08-28T08:53:29.503Z,18.80
2017-08-28T08:55:55.791Z,18.90
2017-08-28T08:58:21.826Z,19.10
2017-08-28T09:00:47.861Z,19.10
2017-08-28T09:03:13.885Z,19.20
2017-08-28T09:05:39.894Z,19.40
2017-08-28T09:08:05.903Z,19.40
2017-08-28T09:10:31.928Z,19.60
2017-08-28T09:12:57.952Z,19.70
2017-08-28T09:15:24.171Z,19.90
2017-08-28T09:17:50.172Z,19.80
2017-08-28T09:20:16.175Z,19.80
2017-08-28T09:22:42.242Z,19.90
2017-08-28T09:25:08.258Z,20.10
2017-08-28T09:27:34.272Z,20.10
2017-08-28T09:30:00.536Z,20.00
2017-08-28T09:32:33.521Z,20.00
2017-08-28T09:34:59.817Z,20.10
2017-08-28T09:37:25.822Z,20.20
2017-08-28T09:39:51.837Z,20.50
2017-08-28T09:42:18.377Z,20.90
2017-08-28T09:44:44.406Z,21.60
2017-08-28T09:47:10.404Z,22.90
2017-08-28T09:49:36.424Z,23.60
2017-08-28T09:52:02.478Z,24.70
2017-08-28T09:54:28.564Z,25.80
2017-08-28T09:56:54.571Z,25.40
2017-08-28T09:59:20.582Z,25.70
2017-08-28T10:01:46.623Z,25.80
2017-08-28T10:04:12.644Z,26.20
2017-08-28T10:06:38.666Z,26.50
2017-08-28T10:09:04.684Z,26.90
2017-08-28T10:11:30.694Z,27.60
2017-08-28T10:13:56.966Z,27.80
2017-08-28T10:16:23.002Z,27.90
2017-08-28T10:18:49.023Z,27.50
2017-08-28T10:21:15.034Z,27.30
2017-08-28T10:23:41.029Z,26.90
2017-08-28T10:26:07.272Z,26.70
2017-08-28T10:28:33.288Z,26.10
2017-08-28T10:30:59.284Z,26.80
2017-08-28T10:33:25.296Z,27.20
2017-08-28T10:35:51.309Z,27.60
2017-08-28T10:38:17.324Z,27.40
2017-08-28T10:40:43.330Z,27.00
2017-08-28T10:43:09.333Z,26.90
2017-08-28T10:45:35.357Z,26.00
2017-08-28T10:48:01.397Z,25.20
2017-08-28T10:50:27.693Z,24.80
2017-08-28T10:52:53.757Z,24.20
2017-08-28T10:55:19.809Z,24.60
2017-08-28T10:57:45.828Z,24.70
2017-08-28T11:00:11.865Z,24.70
2017-08-28T11:02:38.118Z,24.50
2017-08-28T11:05:04.140Z,24.50
2017-08-28T11:07:30.154Z,24.10
2017-08-28T11:09:56.172Z,23.90
2017-08-28T11:12:22.210Z,23.70
2017-08-28T11:14:48.245Z,23.20
2017-08-28T11:17:14.256Z,23.20
2017-08-28T11:19:40.357Z,22.90
2017-08-28T11:22:07.562Z,22.60
2017-08-28T11:24:33.569Z,22.40
2017-08-28T11:26:59.589Z,22.30
2017-08-28T11:29:25.608Z,22.30
2017-08-28T11:31:51.613Z,22.20
2017-08-28T11:34:17.632Z,22.20
2017-08-28T11:36:43.630Z,22.20
2017-08-28T11:39:09.646Z,22.30
2017-08-28T11:41:35.670Z,22.20
2017-08-28T11:44:01.681Z,22.30
2017-08-28T11:46:27.704Z,22.20
2017-08-28T11:48:53.749Z,22.10
2017-08-28T11:51:20.116Z,22.00
2017-08-28T11:53:46.121Z,21.90
2017-08-28T11:56:12.144Z,21.80
2017-08-28T11:58:38.177Z,21.80
2017-08-28T12:01:04.228Z,21.80
2017-08-28T12:03:30.224Z,21.90
2017-08-28T12:05:56.241Z,21.90
2017-08-28T12:08:22.638Z,21.90
2017-08-28T12:10:48.645Z,21.90
2017-08-28T12:13:14.657Z,21.70
2017-08-28T12:15:40.705Z,21.70
2017-08-28T12:18:06.708Z,21.80
2017-08-28T12:20:32.724Z,21.70
2017-08-28T12:22:58.769Z,21.70
2017-08-28T12:25:24.821Z,21.80
2017-08-28T12:27:50.909Z,21.80
2017-08-28T12:30:16.945Z,21.90
2017-08-28T12:32:42.969Z,21.90
2017-08-28T12:35:08.985Z,21.90
2017-08-28T12:37:35.281Z,22.00
2017-08-28T12:40:01.312Z,22.10
2017-08-28T12:42:27.333Z,22.20
2017-08-28T12:44:53.385Z,22.10
2017-08-28T12:47:19.388Z,22.10
2017-08-28T12:49:45.412Z,22.10
2017-08-28T12:52:11.442Z,22.10
2017-08-28T12:54:37.467Z,22.00
2017-08-28T12:57:03.516Z,22.00
2017-08-28T12:59:29.715Z,22.00
2017-08-28T13:01:55.744Z,21.90
2017-08-28T13:04:21.797Z,21.90
2017-08-28T13:06:47.868Z,21.90
2017-08-28T13:09:13.918Z,21.80
2017-08-28T13:11:39.951Z,21.90
2017-08-28T13:14:06.137Z,21.80
2017-08-28T13:16:32.152Z,21.90
2017-08-28T13:18:58.336Z,21.90
2017-08-28T13:21:24.365Z,21.80
2017-08-28T13:23:50.385Z,21.80
2017-08-28T13:26:16.446Z,21.80
2017-08-28T13:28:42.568Z,21.80
2017-08-28T13:31:08.596Z,21.70
2017-08-28T13:33:34.637Z,21.70
2017-08-28T13:36:00.663Z,21.70
2017-08-28T13:38:26.677Z,21.70
2017-08-28T13:40:52.979Z,21.70
2017-08-28T13:43:18.991Z,21.70
2017-08-28T13:45:45.017Z,21.70
2017-08-28T13:48:11.053Z,21.60
2017-08-28T13:50:37.072Z,21.60
2017-08-28T13:53:03.128Z,21.60
2017-08-28T13:55:29.517Z,21.60
2017-08-28T13:57:55.555Z,21.60
2017-08-28T14:00:21.569Z,21.70
2017-08-28T14:02:47.597Z,21.60
2017-08-28T14:05:13.613Z,21.60
2017-08-28T14:10:43.166Z,21.60
2017-08-28T14:13:09.200Z,21.50
2017-08-28T14:15:35.229Z,21.50
2017-08-28T14:18:01.287Z,21.50
2017-08-28T14:20:27.637Z,21.50
2017-08-28T14:22:53.661Z,21.50
2017-08-28T14:25:19.678Z,21.50
2017-08-28T14:27:45.872Z,21.50
2017-08-28T14:30:11.910Z,21.50
2017-08-28T14:32:37.957Z,21.50
2017-08-28T14:35:03.985Z,21.50
2017-08-28T14:37:29.992Z,21.40
2017-08-28T14:39:56.036Z,21.40
2017-08-28T14:42:22.077Z,21.40
2017-08-28T14:44:48.079Z,21.50
2017-08-28T14:47:14.072Z,21.50
2017-08-28T14:49:40.121Z,21.50
2017-08-28T14:52:06.153Z,21.50
2017-08-28T14:54:32.170Z,21.50
2017-08-28T14:56:58.181Z,21.50
2017-08-28T14:59:24.189Z,21.50
2017-08-28T15:01:50.242Z,21.50
2017-08-28T15:04:16.260Z,21.50
2017-08-28T15:06:42.290Z,21.50
2017-08-28T15:09:08.352Z,21.50
2017-08-28T15:11:34.356Z,21.40
2017-08-28T15:14:00.360Z,21.40
2017-08-28T15:16:26.389Z,21.40
2017-08-28T15:18:52.401Z,21.30
2017-08-28T15:21:18.418Z,21.30
2017-08-28T15:23:44.432Z,21.30
2017-08-28T15:26:10.449Z,21.30
2017-08-28T15:28:36.505Z,21.40
2017-08-28T15:31:02.511Z,21.50
2017-08-28T15:33:28.548Z,21.60
2017-08-28T15:35:54.896Z,21.70
2017-08-28T15:38:20.901Z,21.80
2017-08-28T15:40:46.930Z,21.90
2017-08-28T15:43:12.989Z,21.90
2017-08-28T15:45:39.006Z,22.00
2017-08-28T15:48:05.009Z,21.90
2017-08-28T15:50:31.029Z,21.90
2017-08-28T15:52:57.049Z,21.80
2017-08-28T15:55:23.054Z,21.70
2017-08-28T15:57:49.591Z,21.80
2017-08-28T16:00:15.614Z,21.70
2017-08-28T16:02:41.660Z,21.70
2017-08-28T16:05:07.757Z,21.70
2017-08-28T16:07:33.780Z,21.70
2017-08-28T16:09:59.801Z,21.70
2017-08-28T16:12:25.852Z,21.70
2017-08-28T16:14:51.858Z,21.70
2017-08-28T16:17:18.545Z,21.80
2017-08-28T16:19:44.809Z,21.70
2017-08-28T16:22:10.863Z,21.70
2017-08-28T16:24:36.883Z,21.70
2017-08-28T16:27:02.929Z,21.70
2017-08-28T16:29:28.973Z,21.70
2017-08-28T16:31:54.996Z,21.70
2017-08-28T16:34:21.344Z,21.70
2017-08-28T16:36:47.400Z,21.70
2017-08-28T16:39:13.435Z,21.60
2017-08-28T16:41:39.705Z,21.60
2017-08-28T16:46:38.477Z,21.60
2017-08-28T16:49:04.845Z,21.50
2017-08-28T16:51:30.862Z,21.50
2017-08-28T16:53:56.887Z,21.50
2017-08-28T16:56:22.933Z,21.40
2017-08-28T16:58:48.942Z,21.40
2017-08-28T17:01:14.976Z,21.40
2017-08-28T17:03:41.005Z,21.40
2017-08-28T17:06:07.019Z,21.40
2017-08-28T17:08:33.046Z,21.30
2017-08-28T17:10:59.239Z,21.40
2017-08-28T17:13:25.255Z,21.40
2017-08-28T17:15:51.269Z,21.30
2017-08-28T17:18:17.712Z,21.30
2017-08-28T17:20:43.724Z,21.30
2017-08-28T17:23:10.220Z,21.30
2017-08-28T17:25:36.508Z,21.30
2017-08-28T17:28:02.569Z,21.30
2017-08-28T17:30:28.607Z,21.20
2017-08-28T17:32:54.661Z,21.20
2017-08-28T17:35:20.681Z,21.10
2017-08-28T17:37:46.910Z,21.00
2017-08-28T17:40:13.299Z,21.10
2017-08-28T17:42:39.350Z,21.00
2017-08-28T17:45:05.592Z,20.90
2017-08-28T17:47:31.611Z,20.90
2017-08-28T17:49:57.649Z,20.80
2017-08-28T17:52:23.683Z,20.80
2017-08-28T17:54:49.696Z,20.70
2017-08-28T17:57:15.714Z,20.70
2017-08-28T17:59:41.794Z,20.60
2017-08-28T18:02:07.834Z,20.60
2017-08-28T18:04:33.923Z,20.50
2017-08-28T18:06:59.980Z,20.50
2017-08-28T18:09:26.209Z,20.50
2017-08-28T18:11:52.241Z,20.40
2017-08-28T18:14:18.252Z,20.30
2017-08-28T18:16:44.281Z,20.30
2017-08-28T18:19:10.301Z,20.20
2017-08-28T18:21:36.371Z,20.10
2017-08-28T18:24:02.649Z,20.10
2017-08-28T18:26:28.662Z,20.00
2017-08-28T18:28:54.710Z,19.90
2017-08-28T18:31:21.024Z,19.80
2017-08-28T18:33:47.036Z,19.80
2017-08-28T18:36:13.080Z,19.70
2017-08-28T18:38:39.419Z,19.70
2017-08-28T18:41:05.446Z,19.60
2017-08-28T18:43:31.481Z,19.60
2017-08-28T18:45:57.722Z,19.50
2017-08-28T18:48:23.749Z,19.50
2017-08-28T18:50:49.829Z,19.40
2017-08-28T18:53:16.237Z,19.40
2017-08-28T18:55:43.071Z,19.30
2017-08-28T18:58:09.089Z,19.30
2017-08-28T19:00:35.304Z,19.30
2017-08-28T19:03:01.325Z,19.20
2017-08-28T19:05:27.367Z,19.20
2017-08-28T19:07:53.583Z,19.10
2017-08-28T19:10:19.689Z,19.10
2017-08-28T19:12:45.934Z,19.10
2017-08-28T19:15:12.019Z,19.00
2017-08-28T19:17:38.041Z,19.00
2017-08-28T19:20:04.087Z,19.00
2017-08-28T19:22:30.431Z,18.90
2017-08-28T19:24:56.457Z,18.90
2017-08-28T19:27:22.484Z,18.80
2017-08-28T19:29:48.506Z,18.80
2017-08-28T19:32:18.369Z,18.80
2017-08-28T19:34:57.941Z,18.70
2017-08-28T19:37:23.971Z,18.70
2017-08-28T19:39:49.998Z,18.70
2017-08-28T19:42:16.410Z,18.70
2017-08-28T19:44:42.463Z,18.60
2017-08-28T19:47:08.482Z,18.60
2017-08-28T19:49:34.552Z,18.60
2017-08-28T19:52:00.583Z,18.50
2017-08-28T19:54:26.744Z,18.50
2017-08-28T19:56:52.815Z,18.50
2017-08-28T19:59:18.832Z,18.40
2017-08-28T20:01:45.158Z,18.50
2017-08-28T20:04:11.223Z,18.40
2017-08-28T20:06:37.247Z,18.40
2017-08-28T20:09:03.322Z,18.30
2017-08-28T20:11:29.376Z,18.30
2017-08-28T20:13:55.398Z,18.30
2017-08-28T20:16:21.396Z,18.30
2017-08-28T20:18:47.449Z,18.20
2017-08-28T20:21:13.477Z,18.20
2017-08-28T20:23:39.549Z,18.20
2017-08-28T20:26:05.571Z,18.10
2017-08-28T20:28:31.606Z,18.10
2017-08-28T20:30:57.641Z,18.10
2017-08-28T20:33:24.561Z,18.10
2017-08-28T20:35:50.826Z,18.10
2017-08-28T20:38:16.857Z,18.00
2017-08-28T20:40:43.349Z,18.00
2017-08-28T20:43:09.710Z,17.90
2017-08-28T20:45:35.816Z,17.90
2017-08-28T20:48:01.877Z,17.90
2017-08-28T20:50:27.932Z,17.90
2017-08-28T20:52:53.976Z,17.80
2017-08-28T20:55:20.025Z,17.90
2017-08-28T20:57:46.438Z,17.80
2017-08-28T21:00:12.700Z,17.80
2017-08-28T21:02:38.973Z,17.80
2017-08-28T21:05:05.097Z,17.80
2017-08-28T21:07:31.107Z,17.80
2017-08-28T21:09:57.134Z,17.80
2017-08-28T21:12:23.152Z,17.70
2017-08-28T21:14:49.186Z,17.80
2017-08-28T21:17:15.328Z,17.80
2017-08-28T21:19:41.382Z,17.80
2017-08-28T21:22:07.570Z,17.80
2017-08-28T21:24:34.005Z,17.90
2017-08-28T21:27:00.286Z,17.90
2017-08-28T21:29:27.156Z,17.90
2017-08-28T21:31:53.350Z,18.00
2017-08-28T21:34:19.480Z,18.10
2017-08-28T21:36:45.617Z,18.10
2017-08-28T21:39:12.850Z,18.10
2017-08-28T21:41:39.016Z,18.10
2017-08-28T21:44:05.249Z,18.20
2017-08-28T21:46:31.438Z,18.10
2017-08-28T21:48:57.635Z,18.20
2017-08-28T21:51:23.751Z,18.20
2017-08-28T21:53:49.972Z,18.20
2017-08-28T21:56:16.229Z,18.10
2017-08-28T21:58:42.397Z,18.10
2017-08-28T22:01:08.768Z,18.10
2017-08-28T22:03:35.476Z,18.10
2017-08-28T22:06:01.655Z,18.10
2017-08-28T22:08:28.051Z,18.00
2017-08-28T22:10:54.439Z,18.00
2017-08-28T22:13:20.664Z,18.00
2017-08-28T22:15:47.130Z,18.00
2017-08-28T22:18:13.373Z,18.00
2017-08-28T22:20:39.603Z,18.00
2017-08-28T22:23:05.966Z,17.90
2017-08-28T22:25:32.053Z,17.90
2017-08-28T22:27:58.124Z,17.80
2017-08-28T22:30:24.148Z,17.80
2017-08-28T22:32:50.178Z,17.80
2017-08-28T22:35:16.421Z,17.80
2017-08-28T22:37:42.436Z,17.70
2017-08-28T22:40:08.491Z,17.70
2017-08-28T22:42:34.801Z,17.60
2017-08-28T22:45:00.821Z,17.40
2017-08-28T22:47:26.826Z,17.50
2017-08-28T22:49:53.062Z,17.50
2017-08-28T22:52:19.076Z,17.40
2017-08-28T22:54:45.116Z,17.40
2017-08-28T22:57:11.144Z,17.30
2017-08-28T22:59:37.170Z,17.30
2017-08-28T23:02:03.194Z,17.20
2017-08-28T23:04:29.465Z,17.10
2017-08-28T23:06:55.514Z,17.10
2017-08-28T23:09:21.525Z,17.10
2017-08-28T23:11:47.561Z,17.10
2017-08-28T23:14:13.580Z,17.10
2017-08-28T23:16:39.609Z,17.10
2017-08-28T23:19:05.704Z,17.00
2017-08-28T23:21:31.732Z,17.00
2017-08-28T23:23:57.760Z,17.10
2017-08-28T23:26:24.576Z,17.00
2017-08-28T23:28:50.612Z,17.00
2017-08-28T23:31:16.640Z,17.00
2017-08-28T23:33:42.702Z,16.90
2017-08-28T23:36:08.725Z,16.80
2017-08-28T23:38:34.753Z,16.90
2017-08-28T23:41:00.777Z,16.80
2017-08-28T23:43:26.805Z,16.70
2017-08-28T23:45:52.821Z,16.70
2017-08-28T23:48:18.909Z,16.60
2017-08-28T23:50:44.932Z,16.60
2017-08-28T23:53:10.958Z,16.60
2017-08-28T23:55:37.277Z,16.60
2017-08-28T23:58:03.280Z,16.50
